Time,TemperatureF,DewpointF,PressureIn,WindDirection,WindDirectionDegrees,WindSpeedMPH,WindSpeedGustMPH,Humidity,HourlyPrecipIn,Conditions,Clouds,dailyrainin,SolarRadiationWatts/m^2,SoftwareType,DateUTC
2013-02-21 00:11:00,19.0,12.0,-100.00,SE,142,0.0,3.0,73,0.00,,,0.03,0.000000,,2013-02-21 08:11:00,
2013-02-21 00:21:00,19.0,12.0,-100.00,SE,142,0.0,3.0,73,0.00,,,0.03,0.000000,,2013-02-21 08:21:00,
2013-02-21 00:31:00,19.0,12.0,-100.00,SE,142,0.0,3.0,73,0.00,,,0.03,0.000000,,2013-02-21 08:31:00,
2013-02-21 00:41:00,19.0,12.0,-100.00,SE,142,0.0,3.0,73,0.00,,,0.03,0.000000,,2013-02-21 08:41:00,
2013-02-21 01:11:00,18.0,12.0,-100.00,SE,129,0.0,4.0,76,0.00,,,0.00,0.000000,,2013-02-21 09:11:00,
2013-02-21 01:22:00,18.0,12.0,-100.00,SE,129,0.0,4.0,76,0.00,,,0.00,0.000000,,2013-02-21 09:22:00,
2013-02-21 01:31:00,18.0,12.0,-100.00,SE,129,0.0,4.0,76,0.00,,,0.00,0.000000,,2013-02-21 09:31:00,
2013-02-21 01:41:00,18.0,12.0,-100.00,SE,129,0.0,4.0,76,0.00,,,0.00,0.000000,,2013-02-21 09:41:00,
2013-02-21 02:11:00,21.0,9.0,-100.00,ESE,123,3.0,8.0,60,0.00,,,0.00,0.000000,,2013-02-21 10:11:00,
2013-02-21 02:21:00,21.0,9.0,-100.00,ESE,123,3.0,8.0,60,0.00,,,0.00,0.000000,,2013-02-21 10:21:00,
2013-02-21 02:31:00,21.0,9.0,-100.00,ESE,123,3.0,8.0,60,0.00,,,0.00,0.000000,,2013-02-21 10:31:00,
2013-02-21 02:41:00,21.0,9.0,-100.00,ESE,123,3.0,8.0,60,0.00,,,0.00,0.000000,,2013-02-21 10:41:00,
2013-02-21 03:01:00,21.0,8.0,-100.00,ESE,105,2.0,11.0,56,0.00,,,0.00,0.000000,,2013-02-21 11:01:00,
2013-02-21 03:11:00,21.0,8.0,-100.00,ESE,105,2.0,11.0,56,0.00,,,0.00,0.000000,,2013-02-21 11:11:00,
2013-02-21 03:21:00,21.0,8.0,-100.00,ESE,105,2.0,11.0,56,0.00,,,0.00,0.000000,,2013-02-21 11:21:00,
2013-02-21 03:31:00,21.0,8.0,-100.00,ESE,105,2.0,11.0,56,0.00,,,0.00,0.000000,,2013-02-21 11:31:00,
2013-02-21 03:41:00,21.0,8.0,-100.00,ESE,105,2.0,11.0,56,0.00,,,0.00,0.000000,,2013-02-21 11:41:00,
2013-02-21 04:11:00,21.0,10.0,-100.00,SE,134,1.0,5.0,61,0.00,,,0.00,0.000000,,2013-02-21 12:11:00,
2013-02-21 04:21:00,21.0,10.0,-100.00,SE,134,1.0,5.0,61,0.00,,,0.00,0.000000,,2013-02-21 12:21:00,
2013-02-21 04:32:00,21.0,10.0,-100.00,SE,134,1.0,5.0,61,0.00,,,0.00,0.000000,,2013-02-21 12:32:00,
2013-02-21 04:42:00,21.0,10.0,-100.00,SE,134,1.0,5.0,61,0.00,,,0.00,0.000000,,2013-02-21 12:42:00,
2013-02-21 05:12:00,21.0,10.0,-100.00,SE,141,0.0,4.0,63,0.00,,,0.00,0.000000,,2013-02-21 13:12:00,
2013-02-21 05:22:00,21.0,10.0,-100.00,SE,141,0.0,4.0,63,0.00,,,0.00,0.000000,,2013-02-21 13:22:00,
2013-02-21 05:32:00,21.0,10.0,-100.00,SE,141,0.0,4.0,63,0.00,,,0.00,0.000000,,2013-02-21 13:32:00,
2013-02-21 05:41:00,21.0,10.0,-100.00,SE,141,0.0,4.0,63,0.00,,,0.00,0.000000,,2013-02-21 13:41:00,
2013-02-21 06:11:00,21.0,19.0,-100.00,SE,136,3.0,5.0,92,0.05,,,0.05,0.000000,,2013-02-21 14:11:00,
2013-02-21 06:21:00,21.0,19.0,-100.00,SE,136,3.0,5.0,92,0.05,,,0.05,0.000000,,2013-02-21 14:21:00,
2013-02-21 06:31:00,21.0,19.0,-100.00,SE,136,3.0,5.0,92,0.05,,,0.05,0.000000,,2013-02-21 14:31:00,
2013-02-21 06:41:00,21.0,19.0,-100.00,SE,136,3.0,5.0,92,0.05,,,0.05,0.000000,,2013-02-21 14:41:00,
2013-02-21 07:12:00,22.0,21.0,-100.00,SSE,153,0.0,5.0,97,0.02,,,0.07,0.000000,,2013-02-21 15:12:00,
2013-02-21 07:21:00,22.0,21.0,-100.00,SSE,153,0.0,5.0,97,0.02,,,0.07,0.000000,,2013-02-21 15:21:00,
2013-02-21 07:31:00,22.0,21.0,-100.00,SSE,153,0.0,5.0,97,0.02,,,0.07,0.000000,,2013-02-21 15:31:00,
2013-02-21 07:41:00,22.0,21.0,-100.00,SSE,153,0.0,5.0,97,0.02,,,0.07,0.000000,,2013-02-21 15:41:00,
2013-02-21 08:12:00,25.0,19.0,-100.00,SE,142,0.0,5.0,78,0.00,,,0.07,22.000000,,2013-02-21 16:12:00,
2013-02-21 08:21:00,25.0,19.0,-100.00,SE,142,0.0,5.0,78,0.00,,,0.07,22.000000,,2013-02-21 16:21:00,
2013-02-21 08:31:00,25.0,19.0,-100.00,SE,142,0.0,5.0,78,0.00,,,0.07,22.000000,,2013-02-21 16:31:00,
2013-02-21 08:42:00,25.0,19.0,-100.00,SE,142,0.0,5.0,78,0.00,,,0.07,22.000000,,2013-02-21 16:42:00,
2013-02-21 09:11:00,29.0,18.0,-100.00,SE,141,0.0,5.0,62,0.00,,,0.07,83.000000,,2013-02-21 17:11:00,
2013-02-21 09:21:00,29.0,18.0,-100.00,SE,141,0.0,5.0,62,0.00,,,0.07,83.000000,,2013-02-21 17:21:00,
2013-02-21 09:32:00,29.0,18.0,-100.00,SE,141,0.0,5.0,62,0.00,,,0.07,83.000000,,2013-02-21 17:32:00,
2013-02-21 09:41:00,29.0,18.0,-100.00,SE,141,0.0,5.0,62,0.00,,,0.07,83.000000,,2013-02-21 17:41:00,
2013-02-21 10:11:00,33.0,17.0,-100.00,NNE,19,2.0,8.0,51,0.00,,,0.07,122.000000,,2013-02-21 18:11:00,
2013-02-21 10:22:00,33.0,17.0,-100.00,NNE,19,2.0,8.0,51,0.00,,,0.07,122.000000,,2013-02-21 18:22:00,
2013-02-21 10:31:00,33.0,17.0,-100.00,NNE,19,2.0,8.0,51,0.00,,,0.07,122.000000,,2013-02-21 18:31:00,
2013-02-21 10:42:00,33.0,17.0,-100.00,NNE,19,2.0,8.0,51,0.00,,,0.07,122.000000,,2013-02-21 18:42:00,
2013-02-21 11:11:00,32.0,16.0,-100.00,North,2,4.0,10.0,51,0.00,,,0.07,378.000000,,2013-02-21 19:11:00,
2013-02-21 11:21:00,32.0,16.0,-100.00,North,2,4.0,10.0,51,0.00,,,0.07,378.000000,,2013-02-21 19:21:00,
2013-02-21 11:31:00,32.0,16.0,-100.00,North,2,4.0,10.0,51,0.00,,,0.07,378.000000,,2013-02-21 19:31:00,
2013-02-21 11:41:00,32.0,16.0,-100.00,North,2,4.0,10.0,51,0.00,,,0.07,378.000000,,2013-02-21 19:41:00,
2013-02-21 12:11:00,35.0,15.0,-100.00,SW,214,1.0,11.0,43,0.00,,,0.07,549.000000,,2013-02-21 20:11:00,
2013-02-21 12:21:00,35.0,15.0,-100.00,SW,214,1.0,11.0,43,0.00,,,0.07,549.000000,,2013-02-21 20:21:00,
2013-02-21 12:31:00,35.0,15.0,-100.00,SW,214,1.0,11.0,43,0.00,,,0.07,549.000000,,2013-02-21 20:31:00,
2013-02-21 12:41:00,35.0,15.0,-100.00,SW,214,1.0,11.0,43,0.00,,,0.07,549.000000,,2013-02-21 20:41:00,
2013-02-21 13:11:00,39.0,15.0,-100.00,West,265,3.0,9.0,37,0.00,,,0.07,721.000000,,2013-02-21 21:11:00,
2013-02-21 13:21:00,39.0,15.0,-100.00,West,265,3.0,9.0,37,0.00,,,0.07,721.000000,,2013-02-21 21:21:00,
2013-02-21 13:31:00,39.0,15.0,-100.00,West,265,3.0,9.0,37,0.00,,,0.07,721.000000,,2013-02-21 21:31:00,
2013-02-21 13:41:00,39.0,15.0,-100.00,West,265,3.0,9.0,37,0.00,,,0.07,721.000000,,2013-02-21 21:41:00,
2013-02-21 14:11:00,38.0,12.0,-100.00,ESE,112,1.0,7.0,34,0.00,,,0.07,883.000000,,2013-02-21 22:11:00,
2013-02-21 14:21:00,38.0,12.0,-100.00,ESE,112,1.0,7.0,34,0.00,,,0.07,883.000000,,2013-02-21 22:21:00,
2013-02-21 14:31:00,38.0,12.0,-100.00,ESE,112,1.0,7.0,34,0.00,,,0.07,883.000000,,2013-02-21 22:31:00,
2013-02-21 14:41:00,38.0,12.0,-100.00,ESE,112,1.0,7.0,34,0.00,,,0.07,883.000000,,2013-02-21 22:41:00,
2013-02-21 15:11:00,41.0,12.0,-100.00,South,177,0.0,7.0,30,0.00,,,0.07,686.000000,,2013-02-21 23:11:00,
2013-02-21 15:21:00,41.0,12.0,-100.00,South,177,0.0,7.0,30,0.00,,,0.07,686.000000,,2013-02-21 23:21:00,
2013-02-21 15:31:00,41.0,12.0,-100.00,South,177,0.0,7.0,30,0.00,,,0.07,686.000000,,2013-02-21 23:31:00,
2013-02-21 15:41:00,41.0,12.0,-100.00,South,177,0.0,7.0,30,0.00,,,0.07,686.000000,,2013-02-21 23:41:00,
2013-02-21 16:11:00,42.0,10.0,-100.00,SSE,154,1.0,7.0,27,0.00,,,0.07,522.000000,,2013-02-22 00:11:00,
2013-02-21 16:21:00,42.0,10.0,-100.00,SSE,154,1.0,7.0,27,0.00,,,0.07,522.000000,,2013-02-22 00:21:00,
2013-02-21 16:31:00,42.0,10.0,-100.00,SSE,154,1.0,7.0,27,0.00,,,0.07,522.000000,,2013-02-22 00:31:00,
2013-02-21 16:41:00,42.0,10.0,-100.00,SSE,154,1.0,7.0,27,0.00,,,0.07,522.000000,,2013-02-22 00:41:00,
2013-02-21 17:11:00,40.0,4.0,-100.00,SE,137,1.0,6.0,22,0.00,,,0.07,315.000000,,2013-02-22 01:11:00,
2013-02-21 17:21:00,40.0,4.0,-100.00,SE,137,1.0,6.0,22,0.00,,,0.07,315.000000,,2013-02-22 01:21:00,
2013-02-21 17:32:00,40.0,4.0,-100.00,SE,137,1.0,6.0,22,0.00,,,0.07,315.000000,,2013-02-22 01:32:00,
2013-02-21 17:42:00,40.0,4.0,-100.00,SE,137,1.0,6.0,22,0.00,,,0.07,315.000000,,2013-02-22 01:42:00,
2013-02-21 18:11:00,33.0,6.0,-100.00,SSE,166,0.0,4.0,32,0.00,,,0.07,71.000000,,2013-02-22 02:11:00,
2013-02-21 18:21:00,33.0,6.0,-100.00,SSE,166,0.0,4.0,32,0.00,,,0.07,71.000000,,2013-02-22 02:21:00,
2013-02-21 18:31:00,33.0,6.0,-100.00,SSE,166,0.0,4.0,32,0.00,,,0.07,71.000000,,2013-02-22 02:31:00,
2013-02-21 18:42:00,33.0,6.0,-100.00,SSE,166,0.0,4.0,32,0.00,,,0.07,71.000000,,2013-02-22 02:42:00,
2013-02-21 19:11:00,29.0,8.0,-100.00,SSE,158,0.0,4.0,41,0.00,,,0.07,0.000000,,2013-02-22 03:11:00,
2013-02-21 19:21:00,29.0,8.0,-100.00,SSE,158,0.0,4.0,41,0.00,,,0.07,0.000000,,2013-02-22 03:21:00,
2013-02-21 19:31:00,29.0,8.0,-100.00,SSE,158,0.0,4.0,41,0.00,,,0.07,0.000000,,2013-02-22 03:31:00,
2013-02-21 19:41:00,29.0,8.0,-100.00,SSE,158,0.0,4.0,41,0.00,,,0.07,0.000000,,2013-02-22 03:41:00,
2013-02-21 20:11:00,27.0,7.0,-100.00,SE,145,0.0,5.0,42,0.00,,,0.07,0.000000,,2013-02-22 04:11:00,
2013-02-21 20:21:00,27.0,7.0,-100.00,SE,145,0.0,5.0,42,0.00,,,0.07,0.000000,,2013-02-22 04:21:00,
2013-02-21 20:32:00,27.0,7.0,-100.00,SE,145,0.0,5.0,42,0.00,,,0.07,0.000000,,2013-02-22 04:32:00,
2013-02-21 20:42:00,27.0,7.0,-100.00,SE,145,0.0,5.0,42,0.00,,,0.07,0.000000,,2013-02-22 04:42:00,
2013-02-21 21:12:00,25.0,8.0,-100.00,SE,140,0.0,3.0,48,0.00,,,0.07,0.000000,,2013-02-22 05:12:00,
2013-02-21 21:22:00,25.0,8.0,-100.00,SE,140,0.0,3.0,48,0.00,,,0.07,0.000000,,2013-02-22 05:22:00,
2013-02-21 21:32:00,25.0,8.0,-100.00,SE,140,0.0,3.0,48,0.00,,,0.07,0.000000,,2013-02-22 05:32:00,
2013-02-21 21:41:00,25.0,8.0,-100.00,SE,140,0.0,3.0,48,0.00,,,0.07,0.000000,,2013-02-22 05:41:00,
2013-02-21 22:11:00,23.0,7.0,-100.00,SE,142,0.0,0.0,50,0.00,,,0.07,0.000000,,2013-02-22 06:11:00,
2013-02-21 22:21:00,23.0,7.0,-100.00,SE,142,0.0,0.0,50,0.00,,,0.07,0.000000,,2013-02-22 06:21:00,
2013-02-21 22:31:00,23.0,7.0,-100.00,SE,142,0.0,0.0,50,0.00,,,0.07,0.000000,,2013-02-22 06:31:00,
2013-02-21 22:42:00,23.0,7.0,-100.00,SE,142,0.0,0.0,50,0.00,,,0.07,0.000000,,2013-02-22 06:42:00,
2013-02-21 23:11:00,22.0,7.0,-100.00,SE,144,0.0,3.0,52,0.00,,,0.07,0.000000,,2013-02-22 07:11:00,
2013-02-21 23:21:00,22.0,7.0,-100.00,SE,144,0.0,3.0,52,0.00,,,0.07,0.000000,,2013-02-22 07:21:00,
2013-02-21 23:31:00,22.0,7.0,-100.00,SE,144,0.0,3.0,52,0.00,,,0.07,0.000000,,2013-02-22 07:31:00,
2013-02-21 23:42:00,22.0,7.0,-100.00,SE,144,0.0,3.0,52,0.00,,,0.07,0.000000,,2013-02-22 07:42:00,